Latest Weather Observations for Robe Airport

IDS60801

Issued at 2:31 pm CDT Saturday 13 February 2016 (issued every 30 minutes, with the page automatically refreshed every 10 minutes)

About weather observations | Map of weather stations | Latest weather observations for SA | Other Formats
Station Details ID: 026105 Name: ROBE AIRFIELD Lat: -37.18 Lon: 139.81 Height: 3.0 m
Data from the previous 72 hours. | See also: Recent months at Robe Airport
Date/Time
CDT
Temp
°C
App
Temp
°C
Dew
Point
Rel
Hum
%
Delta-T
°C
Wind Press
QNH
hPa
Press
MSL
hPa
Rain
since 9 am
mm
Dir
 
Spd
km/h
Gust
km/h
Spd
kts
Gust
kts
13/02:30pm 20.1 19.5 16.7 81 2.1 W 15 26 8 14 1011.4 1011.4 0.0
13/02:00pm 21.5 20.2 16.9 75 2.8 NW 19 24 10 13 1011.2 1011.2 0.0
13/01:30pm 20.8 18.9 16.6 77 2.5 NW 22 28 12 15 1011.3 1011.3 0.0
13/01:00pm 21.8 20.3 16.7 73 3.1 NW 20 28 11 15 1011.3 1011.3 0.0
13/12:30pm 21.8 19.8 16.5 72 3.2 WNW 22 30 12 16 1011.6 1011.6 0.0
13/12:00pm 23.3 22.1 17.1 68 3.8 NW 19 26 10 14 1011.5 1011.5 0.0
13/11:30am 21.2 19.6 16.6 75 2.8 NW 20 28 11 15 1011.6 1011.6 0.0
13/11:00am 21.0 20.0 16.6 76 2.7 NW 17 24 9 13 1011.5 1011.5 0.0
13/10:30am 20.6 19.5 16.4 77 2.5 NW 17 20 9 11 1011.4 1011.4 0.0
13/10:00am 20.0 19.3 16.4 80 2.2 NW 15 17 8 9 1011.2 1011.2 0.0
13/09:30am 19.4 19.3 16.1 81 2.0 NW 11 15 6 8 1011.1 1011.1 0.0
13/09:00am 19.5 19.9 16.2 81 2.0 NW 9 13 5 7 1011.1 1011.1 0.0
13/08:30am 18.6 19.6 16.4 87 1.3 WNW 6 9 3 5 1011.1 1011.1 0.0
13/08:00am 16.5 17.2 15.7 95 0.5 WNW 6 7 3 4 1011.0 1011.0 0.0
13/07:30am 15.1 15.9 14.8 98 0.2 N 4 6 2 3 1010.8 1010.8 0.0
13/07:00am 13.1 13.2 12.6 97 0.3 N 4 6 2 3 1010.3 1010.3 0.0
13/06:30am 13.3 12.9 12.5 95 0.4 N 6 7 3 4 1009.9 1009.9 0.0
13/06:00am 14.8 15.2 13.8 94 0.6 WSW 4 6 2 3 1010.0 1010.0 0.0
13/05:30am 14.9 15.0 13.8 93 0.6 WSW 6 7 3 4 1009.8 1009.8 0.0
13/05:00am 15.0 15.1 13.9 93 0.6 WSW 6 9 3 5 1009.7 1009.7 0.0
13/04:30am 14.5 14.5 13.7 95 0.4 WSW 6 9 3 5 1009.7 1009.7 0.0
13/04:00am 14.1 14.0 13.8 98 0.2 W 7 13 4 7 1009.5 1009.5 0.0
13/03:30am 11.4 10.9 10.8 96 0.3 NNW 4 6 2 3 1009.6 1009.6 0.0
13/03:00am 11.3 10.4 10.5 95 0.4 NW 6 9 3 5 1009.5 1009.5 0.0
13/02:30am 10.8 10.1 9.9 94 0.5 NNW 4 7 2 4 1010.2 1010.2 0.0
13/02:00am 10.5 10.4 9.3 92 0.6 CALM 0 0 0 0 1010.3 1010.3 0.0
13/01:30am 10.9 10.1 9.5 91 0.7 N 4 4 2 2 1010.6 1010.6 0.0
13/01:00am 10.9 10.0 9.3 90 0.8 N 4 6 2 3 1010.8 1010.8 0.0
13/12:30am 10.3 9.5 8.2 87 1.0 E 2 6 1 3 1010.7 1010.7 0.0
13/12:00am 10.9 10.7 9.2 89 0.8 CALM 0 0 0 0 1010.9 1010.9 0.0
 
Date/Time
CDT
Temp
°C
App
Temp
°C
Dew
Point
Rel
Hum
%
Delta-T
°C
Wind Press
QNH
hPa
Press
MSL
hPa
Rain
since 9 am
mm
Dir
 
Spd
km/h
Gust
km/h
Spd
kts
Gust
kts
12/11:30pm 11.1 10.8 8.7 85 1.2 CALM 0 0 0 0 1011.1 1011.1 0.0
12/11:00pm 12.0 11.8 9.2 83 1.4 CALM 0 0 0 0 1011.7 1011.7 0.0
12/10:30pm 12.6 12.5 9.6 82 1.5 CALM 0 0 0 0 1011.6 1011.6 0.0
12/10:00pm 13.6 13.7 10.2 80 1.8 CALM 0 0 0 0 1011.7 1011.7 0.0
12/09:30pm 14.1 14.0 9.5 74 2.4 CALM 0 0 0 0 1011.6 1011.6 0.0
12/09:00pm 15.8 15.3 10.8 72 2.7 E 4 4 2 2 1011.2 1011.2 0.0
12/08:30pm 16.5 15.5 10.4 67 3.2 ESE 6 7 3 4 1011.1 1011.1 0.0
12/08:00pm 18.6 18.1 11.9 65 3.7 SSE 6 9 3 5 1011.5 1011.5 0.0
12/07:30pm 19.6 18.0 11.6 60 4.4 SSE 11 17 6 9 1011.9 1011.9 0.0
12/07:00pm 20.5 18.1 12.5 60 4.5 S 17 20 9 11 1012.3 1012.3 0.0
12/06:30pm 21.0 17.3 11.6 55 5.2 SSW 22 28 12 15 1012.1 1012.1 0.0
12/06:00pm 23.4 21.3 11.1 46 6.9 SSW 13 17 7 9 1011.7 1011.7 0.0
12/05:30pm 24.1 22.4 11.1 44 7.3 SSW 11 17 6 9 1011.8 1011.8 0.0
12/05:00pm 24.1 22.0 11.1 44 7.3 S 13 20 7 11 1012.1 1012.1 0.0
12/04:30pm 24.1 22.0 11.1 44 7.3 SSW 13 19 7 10 1012.4 1012.4 0.0
12/04:00pm 24.9 23.2 12.5 46 7.1 SSW 13 22 7 12 1012.7 1012.7 0.0
12/03:30pm 23.9 22.5 12.2 48 6.7 SSW 11 19 6 10 1012.9 1012.9 0.0
12/03:00pm 23.8 22.1 12.4 48 6.5 S 13 24 7 13 1013.4 1013.4 0.0
12/02:30pm 23.9 21.4 12.2 48 6.7 SSW 17 26 9 14 1013.8 1013.8 0.0
12/02:00pm 24.0 22.4 12.9 50 6.4 SW 13 24 7 13 1013.8 1013.8 0.0
12/01:30pm 25.7 25.6 13.9 48 7.0 SW 7 15 4 8 1014.0 1014.0 0.0
12/01:00pm 24.2 22.9 13.7 52 6.1 SSW 13 20 7 11 1014.4 1014.4 0.0
12/12:30pm 25.4 24.7 14.2 50 6.6 SW 11 19 6 10 1014.5 1014.5 0.0
12/12:00pm 24.1 22.9 13.9 53 6.0 SSW 13 19 7 10 1014.9 1014.9 0.0
12/11:30am 23.4 21.8 13.8 54 5.6 SSW 15 20 8 11 1015.3 1015.3 0.0
12/11:00am 23.2 22.8 13.1 53 5.8 SSW 7 13 4 7 1015.7 1015.7 0.0
12/10:30am 21.8 21.4 12.9 57 5.1 SE 7 13 4 7 1015.8 1015.8 0.0
12/10:00am 20.8 20.0 12.8 60 4.5 ESE 9 15 5 8 1015.9 1015.9 0.0
12/09:30am 19.3 18.2 13.0 67 3.6 SSE 11 17 6 9 1016.4 1016.4 0.0
12/09:00am 18.2 17.0 12.9 71 3.0 SE 11 17 6 9 1016.6 1016.6 0.0
12/08:30am 16.7 15.9 12.8 78 2.2 SSE 9 13 5 7 1016.7 1016.7 0.0
12/08:00am 15.1 14.7 13.0 87 1.2 SSE 7 11 4 6 1016.3 1016.3 0.0
12/07:30am 12.7 12.2 11.9 95 0.4 SSE 6 7 3 4 1016.3 1016.3 0.0
12/07:00am 11.1 9.9 10.3 95 0.4 SSE 7 9 4 5 1016.2 1016.2 0.0
12/06:30am 11.6 10.2 10.8 95 0.4 SSE 9 9 5 5 1016.1 1016.1 0.0
12/06:00am 11.4 10.3 10.5 94 0.5 SSE 7 11 4 6 1016.1 1016.1 0.0
12/05:30am 12.4 11.5 11.3 93 0.6 SSE 7 9 4 5 1016.0 1016.0 0.0
12/05:00am 12.7 11.8 11.4 92 0.7 SSE 7 13 4 7 1016.0 1016.0 0.0
12/04:30am 13.3 12.2 12.0 92 0.7 SSE 9 13 5 7 1015.9 1015.9 0.0
12/04:00am 13.7 12.7 12.3 91 0.8 SSE 9 13 5 7 1016.0 1016.0 0.0
12/03:30am 13.8 12.8 12.2 90 0.9 SSE 9 13 5 7 1016.2 1016.2 0.0
12/03:00am 14.4 13.1 12.4 88 1.1 SSE 11 15 6 8 1016.3 1016.3 0.0
12/02:30am 14.7 13.4 12.6 87 1.1 SSE 11 17 6 9 1016.4 1016.4 0.0
12/02:00am 15.0 13.8 12.9 87 1.2 SE 11 17 6 9 1016.5 1016.5 0.0
12/01:30am 15.6 13.7 12.9 84 1.5 SE 15 20 8 11 1016.6 1016.6 0.0
12/01:00am 15.7 14.2 13.0 84 1.5 SE 13 19 7 10 1016.8 1016.8 0.0
12/12:30am 16.0 14.3 13.7 86 1.3 SE 15 22 8 12 1017.1 1017.1 0.0
12/12:00am 15.9 14.3 13.9 88 1.1 SSE 15 20 8 11 1017.4 1017.4 0.0
 
Date/Time
CDT
Temp
°C
App
Temp
°C
Dew
Point
Rel
Hum
%
Delta-T
°C
Wind Press
QNH
hPa
Press
MSL
hPa
Rain
since 9 am
mm
Dir
 
Spd
km/h
Gust
km/h
Spd
kts
Gust
kts
11/11:30pm 16.0 14.1 14.2 89 1.0 SSE 17 22 9 12 1017.5 1017.5 0.0
11/11:00pm 15.9 14.0 14.3 90 0.9 S 17 24 9 13 1017.8 1017.8 0.0
11/10:30pm 16.0 13.7 14.2 89 1.0 S 19 22 10 12 1018.0 1018.0 0.0
11/10:00pm 16.7 14.5 14.3 86 1.4 SSE 19 24 10 13 1017.6 1017.6 0.0
11/09:30pm 17.1 14.8 14.2 83 1.7 SSE 19 26 10 14 1017.3 1017.3 0.0
11/09:00pm 17.9 15.1 14.2 79 2.1 SSE 22 28 12 15 1017.0 1017.0 0.0
11/08:30pm 18.3 15.6 14.6 79 2.1 SSE 22 32 12 17 1016.8 1016.8 0.0
11/08:00pm 18.6 15.9 14.7 78 2.3 SSE 22 32 12 17 1016.7 1016.7 0.0
11/07:30pm 18.7 14.9 14.8 78 2.3 SSE 28 37 15 20 1016.5 1016.5 0.0
11/07:00pm 19.7 15.6 14.9 74 2.8 S 30 43 16 23 1016.6 1016.6 0.0
11/06:30pm 19.8 15.3 15.0 74 2.8 S 32 39 17 21 1016.5 1016.5 0.0
11/06:00pm 20.1 15.5 14.5 70 3.3 S 32 41 17 22 1016.2 1016.2 0.0
11/05:30pm 21.4 16.6 14.6 65 4.0 S 33 48 18 26 1016.2 1016.2 0.0
11/05:00pm 21.1 15.7 14.0 64 4.1 S 35 46 19 25 1015.9 1015.9 0.0
11/04:30pm 22.6 17.9 14.4 60 4.8 S 32 43 17 23 1015.9 1015.9 0.0
11/04:00pm 22.6 17.9 14.2 59 4.9 S 32 41 17 22 1015.9 1015.9 0.0
11/03:30pm 22.2 17.3 13.8 59 4.9 S 32 43 17 23 1016.1 1016.1 0.0
11/03:00pm 22.2 18.2 15.3 65 4.1 S 30 43 16 23 1016.7 1016.7 0.0
11/02:30pm 22.0 17.4 14.6 63 4.3 SSW 32 39 17 21 1016.8 1016.8 0.0
11/02:00pm 22.9 18.8 15.0 61 4.7 S 30 39 16 21 1016.8 1016.8 0.0
11/01:30pm 22.8 19.1 15.1 62 4.6 S 28 37 15 20 1017.0 1017.0 0.0
11/01:00pm 22.4 18.1 14.5 61 4.6 SSW 30 39 16 21 1017.1 1017.1 0.0
11/12:30pm 22.2 18.0 14.6 62 4.5 SSW 30 39 16 21 1017.3 1017.3 0.0
11/12:00pm 22.6 18.7 14.4 60 4.8 SSW 28 37 15 20 1017.5 1017.5 0.0
11/11:30am 23.7 21.5 14.4 56 5.5 SSE 19 30 10 16 1017.3 1017.3 0.0
11/11:00am 22.6 20.6 13.9 58 5.1 SSE 17 26 9 14 1017.6 1017.6 0.0
11/10:30am 22.1 19.9 14.5 62 4.5 SSE 19 26 10 14 1017.7 1017.7 0.0
11/10:00am 21.3 19.1 14.5 65 4.0 SE 19 26 10 14 1017.8 1017.8 0.0
11/09:30am 20.4 18.7 14.7 70 3.3 SSE 17 24 9 13 1018.1 1018.1 0.0
11/09:00am 18.8 17.1 14.7 77 2.4 SE 17 22 9 12 1018.3 1018.3 0.0
11/08:30am 17.9 17.4 15.0 83 1.7 SE 11 17 6 9 1018.5 1018.5 0.0
11/08:00am 15.6 15.8 14.8 95 0.5 SSE 7 9 4 5 1018.1 1018.1 0.0
11/07:30am 13.3 13.0 12.8 97 0.3 SSE 6 7 3 4 1017.6 1017.6 0.0
11/07:00am 11.5 11.1 11.0 97 0.3 S 4 6 2 3 1017.4 1017.4 0.0
11/06:30am 10.9 10.3 10.3 96 0.3 S 4 6 2 3 1017.3 1017.3 0.0
11/06:00am 11.8 10.5 11.3 97 0.3 S 9 11 5 6 1016.8 1016.8 0.0
11/05:30am 11.6 10.6 11.0 96 0.3 SSE 7 9 4 5 1016.7 1016.7 0.0
11/05:00am 11.7 10.7 10.9 95 0.4 S 7 9 4 5 1016.4 1016.4 0.0
11/04:30am 11.9 10.5 11.0 94 0.5 SSE 9 11 5 6 1016.2 1016.2 0.0
11/04:00am 13.4 12.5 12.5 94 0.5 SSE 9 13 5 7 1016.1 1016.1 0.0
11/03:30am 12.4 11.5 11.5 94 0.5 SSE 7 9 4 5 1016.1 1016.1 0.0
11/03:00am 12.8 11.6 11.7 93 0.6 S 9 13 5 7 1016.2 1016.2 0.0
11/02:30am 13.4 12.4 12.3 93 0.6 SSE 9 13 5 7 1016.3 1016.3 0.0
11/02:00am 13.4 12.3 12.1 92 0.7 SSE 9 11 5 6 1016.4 1016.4 0.0
11/01:30am 14.1 13.2 12.5 90 0.9 SSE 9 11 5 6 1016.5 1016.5 0.0
11/01:00am 14.8 13.7 13.0 89 1.0 SSE 11 17 6 9 1016.8 1016.8 0.0
11/12:30am 15.0 13.1 13.0 88 1.1 SSE 15 20 8 11 1017.0 1017.0 0.0
11/12:00am 15.4 13.6 13.4 88 1.1 SSE 15 20 8 11 1016.8 1016.8 0.0
 
Date/Time
CDT
Temp
°C
App
Temp
°C
Dew
Point
Rel
Hum
%
Delta-T
°C
Wind Press
QNH
hPa
Press
MSL
hPa
Rain
since 9 am
mm
Dir
 
Spd
km/h
Gust
km/h
Spd
kts
Gust
kts
10/11:30pm 15.5 13.4 13.7 89 1.0 SSE 17 22 9 12 1016.9 1016.9 0.0
10/11:00pm 15.2 13.4 13.2 88 1.1 SSE 15 26 8 14 1017.0 1017.0 0.0
10/10:30pm 15.2 13.4 13.2 88 1.1 S 15 19 8 10 1017.1 1017.1 0.0
10/10:00pm 15.5 13.7 13.2 86 1.3 S 15 19 8 10 1017.0 1017.0 0.0
10/09:30pm 15.7 13.9 13.4 86 1.3 SSE 15 19 8 10 1016.8 1016.8 0.0
10/09:00pm 16.3 14.6 13.6 84 1.5 SSE 15 19 8 10 1016.7 1016.7 0.0
10/08:30pm 16.8 14.7 13.5 81 1.9 SSE 17 24 9 13 1016.7 1016.7 0.0
10/08:00pm 17.7 15.0 13.6 77 2.3 S 20 28 11 15 1016.5 1016.5 0.0
10/07:30pm 18.6 15.6 13.7 73 2.8 S 22 32 12 17 1016.3 1016.3 0.0
10/07:00pm 19.1 14.4 13.3 69 3.3 S 30 39 16 21 1016.0 1016.0 0.0
10/06:30pm 20.1 15.9 13.6 66 3.7 S 28 37 15 20 1015.8 1015.8 0.0
10/06:00pm 20.2 15.5 13.2 64 4.0 S 30 37 16 20 1015.7 1015.7 0.0
10/05:30pm 21.0 16.4 13.4 62 4.4 S 30 39 16 21 1015.5 1015.5 0.0
10/05:00pm 21.4 17.2 13.6 61 4.5 S 28 37 15 20 1015.4 1015.4 0.0
10/04:30pm 21.6 17.5 13.8 61 4.5 S 28 41 15 22 1015.4 1015.4 0.0
10/04:00pm 21.6 16.6 13.5 60 4.7 S 32 41 17 22 1015.5 1015.5 0.0
10/03:30pm 21.7 16.7 13.3 59 4.8 S 32 39 17 21 1015.5 1015.5 0.0
10/03:00pm 21.8 16.7 13.2 58 4.9 S 32 41 17 22 1015.6 1015.6 0.0

Other Formats:

Comma delimited format used in spreadsheet applications
http://www.bom.gov.au/fwo/IDS60801/IDS60801.95816.axf

JavaScript Object Notation format (JSON) in row-major order
http://www.bom.gov.au/fwo/IDS60801/IDS60801.95816.json